createdAt,value
2017-11-15T00:00:19.153Z,5.00
2017-11-15T00:02:46.840Z,4.90
2017-11-15T00:05:14.573Z,4.90
2017-11-15T00:07:42.237Z,4.90
2017-11-15T00:10:09.949Z,4.80
2017-11-15T00:12:38.371Z,4.90
2017-11-15T00:15:06.157Z,4.90
2017-11-15T00:17:33.812Z,5.00
2017-11-15T00:20:01.517Z,5.00
2017-11-15T00:22:36.914Z,4.90
2017-11-15T00:25:04.637Z,4.90
2017-11-15T00:27:32.299Z,4.90
2017-11-15T00:30:00.011Z,4.80
2017-11-15T00:32:27.727Z,4.90
2017-11-15T00:34:55.489Z,4.90
2017-11-15T00:37:23.160Z,4.90
2017-11-15T00:39:50.869Z,4.80
2017-11-15T00:42:19.295Z,4.90
2017-11-15T00:44:47.007Z,4.80
2017-11-15T00:47:15.480Z,4.90
2017-11-15T00:49:43.239Z,4.80
2017-11-15T00:52:10.904Z,5.00
2017-11-15T00:54:39.403Z,5.00
2017-11-15T00:57:07.128Z,5.00
2017-11-15T00:59:34.799Z,5.10
2017-11-15T01:02:03.285Z,5.00
2017-11-15T01:04:31.731Z,5.00
2017-11-15T01:06:59.433Z,5.00
2017-11-15T01:09:27.863Z,5.00
2017-11-15T01:11:55.569Z,5.00
2017-11-15T01:14:24.002Z,5.00
2017-11-15T01:16:51.709Z,5.00
2017-11-15T01:19:20.145Z,5.00
2017-11-15T01:21:47.849Z,5.00
2017-11-15T01:24:16.284Z,5.10
2017-11-15T01:26:43.989Z,5.00
2017-11-15T01:29:11.651Z,5.10
2017-11-15T01:31:39.353Z,5.00
2017-11-15T01:34:07.014Z,4.90
2017-11-15T01:36:34.724Z,5.00
2017-11-15T01:39:03.240Z,4.80
2017-11-15T01:41:30.948Z,4.80
2017-11-15T01:43:59.417Z,4.90
2017-11-15T01:46:27.172Z,4.90
2017-11-15T01:48:54.901Z,5.00
2017-11-15T01:51:22.661Z,5.10
2017-11-15T01:53:50.369Z,5.10
2017-11-15T01:56:18.922Z,5.10
2017-11-15T01:58:46.645Z,5.00
2017-11-15T02:01:14.427Z,5.10
2017-11-15T02:03:42.168Z,5.10
2017-11-15T02:06:09.847Z,5.00
2017-11-15T02:08:37.572Z,5.00
2017-11-15T02:11:05.265Z,5.00
2017-11-15T02:13:32.996Z,4.90
2017-11-15T02:16:00.688Z,5.00
2017-11-15T02:18:28.448Z,5.00
2017-11-15T02:20:56.174Z,5.00
2017-11-15T02:23:23.942Z,5.10
2017-11-15T02:25:51.659Z,5.00
2017-11-15T02:28:19.406Z,5.00
2017-11-15T02:30:47.183Z,5.00
2017-11-15T02:33:14.952Z,5.20
2017-11-15T02:35:42.633Z,5.10
2017-11-15T02:38:10.418Z,4.90
2017-11-15T02:40:38.162Z,4.90
2017-11-15T02:43:05.953Z,5.00
2017-11-15T02:45:33.680Z,5.00
2017-11-15T02:48:02.221Z,4.90
2017-11-15T02:50:29.928Z,4.80
2017-11-15T02:52:57.701Z,4.90
2017-11-15T02:55:25.398Z,4.90
2017-11-15T02:57:53.152Z,4.80
2017-11-15T03:00:20.953Z,4.90
2017-11-15T03:02:49.416Z,5.00
2017-11-15T03:05:17.157Z,5.00
2017-11-15T03:07:44.816Z,5.00
2017-11-15T03:10:12.555Z,4.80
2017-11-15T03:12:40.256Z,4.90
2017-11-15T03:15:07.988Z,4.90
2017-11-15T03:17:35.658Z,4.90
2017-11-15T03:20:03.436Z,4.90
2017-11-15T03:22:31.131Z,4.80
2017-11-15T03:24:59.601Z,4.80
2017-11-15T03:27:28.076Z,4.90
2017-11-15T03:29:56.598Z,4.90
2017-11-15T03:32:24.268Z,4.90
2017-11-15T03:34:51.968Z,5.00
2017-11-15T03:37:19.632Z,5.10
2017-11-15T03:39:47.332Z,5.00
2017-11-15T03:42:14.994Z,5.00
2017-11-15T03:44:42.701Z,5.10
2017-11-15T03:47:10.372Z,5.00
2017-11-15T03:49:38.877Z,5.10
2017-11-15T03:52:06.539Z,5.10
2017-11-15T03:54:34.240Z,5.10
2017-11-15T03:57:01.917Z,5.10
2017-11-15T03:59:29.613Z,5.20
2017-11-15T04:01:57.353Z,5.10
2017-11-15T04:04:25.904Z,5.10
2017-11-15T04:06:53.604Z,5.10
2017-11-15T04:09:22.034Z,5.20
2017-11-15T04:11:49.736Z,5.20
2017-11-15T04:14:18.154Z,5.20
2017-11-15T04:16:45.856Z,5.20
2017-11-15T04:19:13.524Z,5.30
2017-11-15T04:21:41.228Z,5.20
2017-11-15T04:24:08.917Z,5.10
2017-11-15T04:26:36.661Z,5.00
2017-11-15T04:29:04.333Z,5.00
2017-11-15T04:31:32.040Z,5.10
2017-11-15T04:34:00.460Z,5.10
2017-11-15T04:36:28.200Z,5.10
2017-11-15T04:38:55.961Z,5.10
2017-11-15T04:41:23.696Z,5.20
2017-11-15T04:43:52.149Z,5.00
2017-11-15T04:46:19.853Z,5.00
2017-11-15T04:48:47.516Z,5.00
2017-11-15T04:51:15.221Z,5.00
2017-11-15T04:53:42.882Z,5.10
2017-11-15T04:56:10.590Z,5.10
2017-11-15T04:58:38.239Z,5.20
2017-11-15T05:01:06.708Z,5.20
2017-11-15T05:03:35.132Z,5.30
2017-11-15T05:06:02.882Z,5.30
2017-11-15T05:08:30.572Z,5.20
2017-11-15T05:10:58.240Z,5.10
2017-11-15T05:13:25.951Z,5.20
2017-11-15T05:15:53.624Z,5.20
2017-11-15T05:18:21.324Z,5.20
2017-11-15T05:20:49.049Z,5.20
2017-11-15T05:23:16.818Z,5.20
2017-11-15T05:25:44.536Z,5.30
2017-11-15T05:28:13.039Z,5.20
2017-11-15T05:30:40.719Z,5.10
2017-11-15T05:33:08.465Z,5.10
2017-11-15T05:35:36.136Z,5.20
2017-11-15T05:38:03.841Z,5.20
2017-11-15T05:40:32.281Z,5.10
2017-11-15T05:42:59.982Z,5.10
2017-11-15T05:45:28.528Z,5.00
2017-11-15T05:47:56.228Z,5.00
2017-11-15T05:50:24.680Z,4.90
2017-11-15T05:52:52.380Z,4.90
2017-11-15T05:55:20.040Z,5.00
2017-11-15T05:57:47.751Z,5.10
2017-11-15T06:00:15.448Z,5.20
2017-11-15T06:02:43.913Z,5.10
2017-11-15T06:05:11.572Z,5.10
2017-11-15T06:07:39.501Z,5.10
2017-11-15T06:10:07.259Z,5.20
2017-11-15T06:12:35.643Z,5.20
2017-11-15T06:15:03.399Z,5.20
2017-11-15T06:17:31.048Z,5.20
2017-11-15T06:19:58.829Z,5.10
2017-11-15T06:22:26.453Z,5.10
2017-11-15T06:24:54.213Z,5.10
2017-11-15T06:27:22.623Z,5.00
2017-11-15T06:29:50.326Z,5.00
2017-11-15T06:32:18.129Z,5.10
2017-11-15T06:34:45.802Z,5.10
2017-11-15T06:37:13.563Z,5.10
2017-11-15T06:39:41.200Z,5.00
2017-11-15T06:42:08.863Z,5.00
2017-11-15T06:44:36.577Z,5.00
2017-11-15T06:47:05.004Z,5.10
2017-11-15T06:49:32.713Z,5.10
2017-11-15T06:52:00.372Z,5.00
2017-11-15T06:54:28.855Z,5.00
2017-11-15T06:56:57.280Z,5.00
2017-11-15T06:59:24.975Z,4.90
2017-11-15T07:01:52.638Z,5.00
2017-11-15T07:04:20.347Z,5.30
2017-11-15T07:06:48.016Z,5.30
2017-11-15T07:09:15.717Z,5.30
2017-11-15T07:11:43.377Z,5.30
2017-11-15T07:14:11.044Z,5.30
2017-11-15T07:16:38.744Z,5.30
2017-11-15T07:19:06.409Z,5.30
2017-11-15T07:21:34.113Z,5.30
2017-11-15T07:24:01.789Z,5.30
2017-11-15T07:26:30.260Z,5.20
2017-11-15T07:28:57.981Z,5.30
2017-11-15T07:31:25.688Z,5.20
2017-11-15T07:33:54.152Z,5.20
2017-11-15T07:36:21.879Z,5.20
2017-11-15T07:38:49.546Z,5.30
2017-11-15T07:41:17.244Z,5.20
2017-11-15T07:43:45.677Z,5.40
2017-11-15T07:46:13.383Z,5.40
2017-11-15T07:48:41.808Z,5.60
2017-11-15T07:51:09.545Z,5.60
2017-11-15T07:53:37.248Z,5.60
2017-11-15T07:56:04.977Z,5.60
2017-11-15T07:58:32.636Z,5.50
2017-11-15T08:01:00.345Z,5.60
2017-11-15T08:03:28.004Z,5.60
2017-11-15T08:05:55.711Z,5.80
2017-11-15T08:08:23.398Z,5.80
2017-11-15T08:10:51.869Z,6.00
2017-11-15T08:13:19.540Z,6.00
2017-11-15T08:15:48.023Z,6.10
2017-11-15T08:18:15.682Z,6.10
2017-11-15T08:20:43.360Z,6.00
2017-11-15T08:23:11.066Z,6.00
2017-11-15T08:25:38.732Z,6.00
2017-11-15T08:28:06.432Z,5.90
2017-11-15T08:30:34.093Z,5.90
2017-11-15T08:33:01.796Z,5.90
2017-11-15T08:35:29.457Z,5.90
2017-11-15T08:37:57.164Z,5.80
2017-11-15T08:40:24.841Z,5.90
2017-11-15T08:42:52.545Z,5.90
2017-11-15T08:45:20.279Z,5.90
2017-11-15T08:47:48.764Z,6.00
2017-11-15T08:50:17.245Z,5.80
2017-11-15T08:52:45.813Z,6.00
2017-11-15T08:55:14.241Z,6.00
2017-11-15T08:57:41.985Z,6.00
2017-11-15T09:00:09.652Z,6.00
2017-11-15T09:02:37.373Z,6.00
2017-11-15T09:05:05.830Z,6.20
2017-11-15T09:07:33.545Z,6.20
2017-11-15T09:10:01.210Z,6.40
2017-11-15T09:12:28.928Z,6.60
2017-11-15T09:14:57.356Z,6.60
2017-11-15T09:17:25.056Z,6.50
2017-11-15T09:19:52.714Z,6.50
2017-11-15T09:22:20.373Z,6.70
2017-11-15T09:24:48.069Z,6.80
2017-11-15T09:27:15.741Z,6.80
2017-11-15T09:29:43.444Z,6.70
2017-11-15T09:32:11.109Z,6.90
2017-11-15T09:34:38.821Z,6.80
2017-11-15T09:37:06.493Z,6.90
2017-11-15T09:39:34.204Z,6.90
2017-11-15T09:42:02.632Z,6.90
2017-11-15T09:44:30.374Z,6.90
2017-11-15T09:46:58.088Z,6.80
2017-11-15T09:49:25.840Z,6.90
2017-11-15T09:51:53.548Z,6.90
2017-11-15T09:54:21.274Z,7.00
2017-11-15T09:56:48.943Z,7.00
2017-11-15T09:59:17.412Z,7.10
2017-11-15T10:01:45.100Z,7.00
2017-11-15T10:04:12.808Z,7.10
2017-11-15T10:06:40.467Z,7.10
2017-11-15T10:09:08.192Z,7.10
2017-11-15T10:11:35.893Z,7.20
2017-11-15T10:14:03.601Z,7.20
2017-11-15T10:16:32.032Z,7.30
2017-11-15T10:18:59.724Z,7.30
2017-11-15T10:21:28.158Z,7.40
2017-11-15T10:23:55.891Z,7.40
2017-11-15T10:26:23.584Z,7.40
2017-11-15T10:28:51.253Z,7.50
2017-11-15T10:31:18.961Z,7.60
2017-11-15T10:33:46.616Z,7.40
2017-11-15T10:36:14.322Z,7.50
2017-11-15T10:38:41.986Z,7.50
2017-11-15T10:41:09.729Z,7.50
2017-11-15T10:43:37.388Z,7.80
2017-11-15T10:46:05.088Z,7.90
2017-11-15T10:48:32.776Z,7.70
2017-11-15T10:51:00.483Z,7.30
2017-11-15T10:53:28.141Z,7.40
2017-11-15T10:55:55.897Z,7.70
2017-11-15T10:58:23.595Z,7.80
2017-11-15T11:00:52.082Z,7.50
2017-11-15T11:03:20.572Z,7.50
2017-11-15T11:05:48.318Z,7.50
2017-11-15T11:08:16.772Z,7.70
2017-11-15T11:10:44.523Z,7.70
2017-11-15T11:13:12.212Z,7.70
2017-11-15T11:15:39.924Z,7.70
2017-11-15T11:18:07.588Z,7.80
2017-11-15T11:20:35.356Z,8.10
2017-11-15T11:23:03.070Z,7.90
2017-11-15T11:25:31.561Z,7.80
2017-11-15T11:27:59.222Z,7.80
2017-11-15T11:30:26.916Z,7.70
2017-11-15T11:32:54.636Z,7.80
2017-11-15T11:35:22.308Z,8.00
2017-11-15T11:37:50.011Z,8.10
2017-11-15T11:40:21.480Z,8.20
2017-11-15T11:42:49.189Z,8.30
2017-11-15T11:45:16.858Z,8.30
2017-11-15T11:47:44.560Z,8.00
2017-11-15T11:50:12.993Z,8.20
2017-11-15T11:52:40.695Z,8.20
2017-11-15T11:55:08.354Z,8.20
2017-11-15T11:57:36.060Z,8.20
2017-11-15T12:00:03.777Z,8.00
2017-11-15T12:02:32.280Z,8.10
2017-11-15T12:05:00.001Z,8.10
2017-11-15T12:07:28.389Z,8.20
2017-11-15T12:09:56.715Z,8.50
2017-11-15T12:12:25.140Z,8.40
2017-11-15T12:14:53.431Z,8.40
2017-11-15T12:17:21.819Z,8.30
2017-11-15T12:19:50.134Z,7.90
2017-11-15T12:22:20.004Z,8.10
2017-11-15T12:24:49.195Z,8.10
2017-11-15T12:27:18.443Z,8.50
2017-11-15T12:29:47.542Z,8.60
2017-11-15T12:32:15.331Z,8.50
2017-11-15T12:34:43.780Z,8.80
2017-11-15T12:37:11.499Z,8.80
2017-11-15T12:39:39.160Z,8.90
2017-11-15T12:42:06.872Z,8.70
2017-11-15T12:44:34.616Z,8.70
2017-11-15T12:47:03.084Z,8.70
2017-11-15T12:49:30.840Z,8.70
2017-11-15T12:51:58.517Z,8.90
2017-11-15T12:54:26.293Z,8.70
2017-11-15T12:56:54.026Z,8.70
2017-11-15T12:59:21.733Z,8.70
2017-11-15T13:01:50.165Z,8.60
2017-11-15T13:04:17.871Z,8.50
2017-11-15T13:06:46.307Z,8.50
2017-11-15T13:09:14.033Z,8.50
2017-11-15T13:11:41.729Z,8.60
2017-11-15T13:14:09.481Z,8.60
2017-11-15T13:16:37.188Z,8.60
2017-11-15T13:19:05.745Z,8.50
2017-11-15T13:21:33.429Z,8.50
2017-11-15T13:24:01.929Z,8.50
2017-11-15T13:26:29.632Z,8.50
2017-11-15T13:28:57.443Z,8.50
2017-11-15T13:31:25.881Z,8.60
2017-11-15T13:33:53.601Z,8.60
2017-11-15T13:36:21.290Z,8.50
2017-11-15T13:38:48.997Z,8.50
2017-11-15T13:41:17.428Z,8.40
2017-11-15T13:43:45.157Z,8.40
2017-11-15T13:46:12.859Z,8.50
2017-11-15T13:48:40.633Z,8.30
2017-11-15T13:51:08.312Z,8.20
2017-11-15T13:53:36.745Z,8.50
2017-11-15T13:56:04.469Z,8.50
2017-11-15T13:58:32.133Z,8.40
2017-11-15T14:00:59.852Z,8.40
2017-11-15T14:03:27.568Z,8.30
2017-11-15T14:05:55.319Z,8.40
2017-11-15T14:08:23.000Z,8.50
2017-11-15T14:10:51.290Z,8.80
2017-11-15T14:13:35.244Z,8.40
2017-11-15T14:16:03.569Z,8.30
2017-11-15T14:18:31.236Z,8.30
2017-11-15T14:20:58.933Z,8.30
2017-11-15T14:23:26.605Z,8.30
2017-11-15T14:25:54.309Z,8.40
2017-11-15T14:28:21.977Z,8.40
2017-11-15T14:30:49.681Z,8.60
2017-11-15T14:33:17.342Z,8.70
2017-11-15T14:35:45.049Z,8.50
2017-11-15T14:38:12.845Z,8.40
2017-11-15T14:40:40.567Z,8.30
2017-11-15T14:43:08.235Z,8.40
2017-11-15T14:45:35.940Z,8.40
2017-11-15T14:48:03.635Z,8.40
2017-11-15T14:50:32.102Z,8.50
2017-11-15T14:53:00.525Z,8.50
2017-11-15T14:55:28.188Z,8.50
2017-11-15T14:57:55.887Z,8.50
2017-11-15T15:00:23.562Z,8.40
2017-11-15T15:02:52.029Z,8.30
2017-11-15T15:05:20.459Z,8.30
2017-11-15T15:07:48.148Z,8.30
2017-11-15T15:10:15.845Z,8.30
2017-11-15T15:12:56.695Z,8.60
2017-11-15T15:15:25.135Z,8.50
2017-11-15T15:17:52.828Z,8.50
2017-11-15T15:20:20.492Z,8.50
2017-11-15T15:22:48.960Z,8.40
2017-11-15T15:25:16.621Z,8.40
2017-11-15T15:27:44.345Z,8.40
2017-11-15T15:30:12.054Z,8.40
2017-11-15T15:32:40.529Z,8.40
2017-11-15T15:35:08.957Z,8.20
2017-11-15T15:37:36.673Z,8.20
2017-11-15T15:40:05.119Z,8.00
2017-11-15T15:42:32.825Z,8.00
2017-11-15T15:45:00.485Z,8.00
2017-11-15T15:47:28.189Z,7.90
2017-11-15T15:49:55.848Z,7.90
2017-11-15T15:52:23.560Z,8.00
2017-11-15T15:54:51.222Z,8.20
2017-11-15T15:57:18.929Z,8.10
2017-11-15T15:59:46.599Z,7.80
2017-11-15T16:02:14.300Z,7.80
2017-11-15T16:04:41.960Z,7.80
2017-11-15T16:07:09.621Z,7.60
2017-11-15T16:09:37.409Z,7.50
2017-11-15T16:12:05.093Z,7.40
2017-11-15T16:14:32.804Z,7.70
2017-11-15T16:17:00.457Z,7.70
2017-11-15T16:19:28.208Z,7.60
2017-11-15T16:21:56.633Z,7.60
2017-11-15T16:24:24.345Z,7.60
2017-11-15T16:26:52.769Z,7.60
2017-11-15T16:29:20.477Z,7.60
2017-11-15T16:31:48.901Z,7.50
2017-11-15T16:34:16.607Z,7.50
2017-11-15T16:36:44.273Z,7.40
2017-11-15T16:39:12.753Z,7.40
2017-11-15T16:41:41.181Z,7.50
2017-11-15T16:44:08.959Z,7.50
2017-11-15T16:46:36.617Z,7.50
2017-11-15T16:49:04.331Z,7.50
2017-11-15T16:51:31.992Z,7.60
2017-11-15T16:53:59.697Z,7.60
2017-11-15T16:56:27.371Z,7.70
2017-11-15T16:58:55.068Z,7.90
2017-11-15T17:01:22.729Z,7.70
2017-11-15T17:03:50.431Z,7.50
2017-11-15T17:06:18.083Z,7.50
2017-11-15T17:08:45.785Z,7.50
2017-11-15T17:11:13.445Z,7.60
2017-11-15T17:13:41.877Z,7.90
2017-11-15T17:16:09.577Z,7.90
2017-11-15T17:18:37.236Z,7.90
2017-11-15T17:21:04.981Z,7.80
2017-11-15T17:23:32.657Z,7.70
2017-11-15T17:26:01.137Z,7.60
2017-11-15T17:28:28.824Z,7.50
2017-11-15T17:30:56.540Z,7.50
2017-11-15T17:33:24.271Z,7.40
2017-11-15T17:35:51.993Z,7.40
2017-11-15T17:38:20.420Z,7.50
2017-11-15T17:40:48.131Z,7.50
2017-11-15T17:43:16.556Z,7.70
2017-11-15T17:45:44.321Z,7.70
2017-11-15T17:48:12.044Z,7.80
2017-11-15T17:50:39.789Z,7.80
2017-11-15T17:53:07.491Z,7.70
2017-11-15T17:55:35.238Z,7.60
2017-11-15T17:58:02.900Z,7.50
2017-11-15T18:00:30.625Z,7.50
2017-11-15T18:02:59.051Z,7.50
2017-11-15T18:05:26.752Z,7.50
2017-11-15T18:07:54.415Z,7.70
2017-11-15T18:10:22.916Z,7.50
2017-11-15T18:12:51.343Z,7.50
2017-11-15T18:15:19.003Z,7.40
2017-11-15T18:17:46.721Z,7.30
2017-11-15T18:20:14.379Z,7.30
2017-11-15T18:22:42.081Z,7.20
2017-11-15T18:25:09.744Z,7.20
2017-11-15T18:27:37.469Z,7.10
2017-11-15T18:30:05.145Z,7.10
2017-11-15T18:32:32.843Z,7.10
2017-11-15T18:35:00.528Z,7.10
2017-11-15T18:37:29.001Z,7.20
2017-11-15T18:39:57.456Z,7.30
2017-11-15T18:42:25.164Z,7.30
2017-11-15T18:44:52.841Z,7.30
2017-11-15T18:47:20.586Z,7.20
2017-11-15T18:49:48.253Z,7.10
2017-11-15T18:52:15.961Z,7.10
2017-11-15T18:54:43.623Z,7.10
2017-11-15T18:57:11.337Z,7.10
2017-11-15T18:59:38.997Z,7.10
2017-11-15T19:02:06.713Z,7.20
2017-11-15T19:04:35.140Z,7.20
2017-11-15T19:07:02.850Z,7.20
2017-11-15T19:09:31.310Z,7.30
2017-11-15T19:11:59.002Z,7.30
2017-11-15T19:14:26.669Z,7.20
2017-11-15T19:16:54.408Z,7.30
2017-11-15T19:19:22.833Z,7.20
2017-11-15T19:21:50.490Z,7.20
2017-11-15T19:24:18.184Z,7.30
2017-11-15T19:26:45.881Z,7.30
2017-11-15T19:29:13.589Z,7.30
2017-11-15T19:31:42.008Z,7.50
2017-11-15T19:34:10.535Z,7.40
2017-11-15T19:36:38.195Z,7.50
2017-11-15T19:39:05.905Z,7.50
2017-11-15T19:41:34.324Z,7.40
2017-11-15T19:44:02.033Z,7.30
2017-11-15T19:46:30.463Z,7.30
2017-11-15T19:48:58.165Z,7.30
2017-11-15T19:51:25.840Z,7.30
2017-11-15T19:53:54.315Z,7.30
2017-11-15T19:56:22.752Z,7.10
2017-11-15T19:58:50.487Z,7.10
2017-11-15T20:01:18.158Z,7.10
2017-11-15T20:03:45.853Z,7.10
2017-11-15T20:06:13.553Z,7.00
2017-11-15T20:08:41.267Z,7.10
2017-11-15T20:11:08.924Z,7.10
2017-11-15T20:13:36.621Z,7.10
2017-11-15T20:16:05.058Z,7.00
2017-11-15T20:18:32.790Z,7.00
2017-11-15T20:21:00.452Z,6.90
2017-11-15T20:23:28.168Z,6.90
2017-11-15T20:25:56.600Z,7.00
2017-11-15T20:28:24.267Z,7.00
2017-11-15T20:30:51.973Z,6.80
2017-11-15T20:33:20.417Z,6.90
2017-11-15T20:35:48.121Z,6.90
2017-11-15T20:38:15.776Z,6.80
2017-11-15T20:40:43.476Z,6.80
2017-11-15T20:43:11.128Z,6.80
2017-11-15T20:45:38.837Z,6.80
2017-11-15T20:48:07.265Z,6.80
2017-11-15T20:50:34.972Z,6.80
2017-11-15T20:53:02.657Z,6.70
2017-11-15T20:55:30.376Z,6.70
2017-11-15T20:57:58.048Z,6.60
2017-11-15T21:00:25.756Z,6.60
2017-11-15T21:02:53.425Z,6.70
2017-11-15T21:05:21.125Z,6.80
2017-11-15T21:07:48.783Z,6.70
2017-11-15T21:10:16.499Z,6.80
2017-11-15T21:12:44.178Z,6.80
2017-11-15T21:15:11.880Z,6.70
2017-11-15T21:17:40.312Z,6.70
2017-11-15T21:20:08.013Z,6.60
2017-11-15T21:22:36.455Z,6.60
2017-11-15T21:25:04.202Z,6.60
2017-11-15T21:27:31.900Z,6.50
2017-11-15T21:29:59.616Z,6.40
2017-11-15T21:32:27.275Z,6.50
2017-11-15T21:34:54.990Z,6.50
2017-11-15T21:37:23.418Z,6.60
2017-11-15T21:39:51.067Z,6.60
2017-11-15T21:42:18.771Z,6.60
2017-11-15T21:44:46.432Z,6.60
2017-11-15T21:47:14.180Z,6.70
2017-11-15T21:49:41.851Z,6.70
2017-11-15T21:52:09.551Z,6.70
2017-11-15T21:54:37.236Z,6.90
2017-11-15T21:57:04.927Z,6.90
2017-11-15T21:59:32.609Z,6.90
2017-11-15T22:02:01.082Z,6.90
2017-11-15T22:04:29.523Z,7.00
2017-11-15T22:06:57.225Z,7.00
2017-11-15T22:09:25.648Z,6.90
2017-11-15T22:11:53.372Z,6.90
2017-11-15T22:14:21.905Z,6.80
2017-11-15T22:16:50.368Z,6.70
2017-11-15T22:19:18.029Z,6.70
2017-11-15T22:21:45.752Z,6.60
2017-11-15T22:24:14.188Z,6.60
2017-11-15T22:26:41.904Z,6.50
2017-11-15T22:29:09.568Z,6.70
2017-11-15T22:31:37.268Z,6.60
2017-11-15T22:34:04.928Z,6.50
2017-11-15T22:36:32.644Z,6.60
2017-11-15T22:39:00.309Z,6.60
2017-11-15T22:41:27.980Z,6.50
2017-11-15T22:43:55.683Z,6.70
2017-11-15T22:46:23.343Z,6.50
2017-11-15T22:48:51.048Z,6.60
2017-11-15T22:51:18.703Z,6.50
2017-11-15T22:53:46.502Z,6.40
2017-11-15T22:56:14.153Z,6.50
2017-11-15T22:58:41.852Z,6.60
2017-11-15T23:01:10.275Z,6.70
2017-11-15T23:03:37.976Z,6.70
2017-11-15T23:06:05.636Z,6.80
2017-11-15T23:08:33.328Z,6.50
2017-11-15T23:11:00.985Z,6.50
2017-11-15T23:13:28.684Z,6.60
2017-11-15T23:15:56.333Z,6.70
2017-11-15T23:18:24.027Z,6.70
2017-11-15T23:20:51.683Z,6.70
2017-11-15T23:23:19.385Z,6.60
2017-11-15T23:25:47.042Z,6.40
2017-11-15T23:28:14.740Z,6.40
2017-11-15T23:30:42.396Z,6.60
2017-11-15T23:33:10.101Z,6.50
2017-11-15T23:35:38.533Z,6.40
2017-11-15T23:38:06.357Z,6.40
2017-11-15T23:40:34.816Z,6.50
2017-11-15T23:43:02.473Z,6.50
2017-11-15T23:45:30.184Z,6.50
2017-11-15T23:47:57.846Z,6.60
2017-11-15T23:50:25.539Z,6.70
2017-11-15T23:52:53.216Z,6.50
2017-11-15T23:55:20.914Z,6.50
2017-11-15T23:57:48.578Z,6.50
